createdAt,value
2019-04-01T05:00:05.276Z,102794.22
2019-04-01T05:02:35.224Z,102804.75
2019-04-01T05:05:05.193Z,102798.16
2019-04-01T05:07:36.377Z,102802.14
2019-04-01T05:10:07.061Z,102803.00
2019-04-01T05:12:39.483Z,102799.05
2019-04-01T05:15:10.405Z,102806.55
2019-04-01T05:17:40.205Z,102806.51
2019-04-01T05:20:10.542Z,102803.89
2019-04-01T05:22:41.994Z,102813.55
2019-04-01T05:25:12.869Z,102814.00
2019-04-01T05:27:43.454Z,102811.33
2019-04-01T05:30:14.116Z,102812.66
2019-04-01T05:32:45.692Z,102813.55
2019-04-01T05:35:18.416Z,102814.41
2019-04-01T05:37:47.946Z,102819.66
2019-04-01T05:40:20.227Z,102809.97
2019-04-01T05:42:50.846Z,102812.63
2019-04-01T05:45:22.305Z,102813.53
2019-04-01T05:47:53.427Z,102819.23
2019-04-01T05:50:22.869Z,102821.01
2019-04-01T05:52:52.258Z,102821.89
2019-04-01T05:55:21.918Z,102826.27
2019-04-01T05:57:52.729Z,102832.45
2019-04-01T06:00:28.172Z,102825.86
2019-04-01T06:02:58.009Z,102829.76
2019-04-01T06:05:27.618Z,102829.34
2019-04-01T06:07:57.011Z,102826.23
2019-04-01T06:10:28.422Z,102829.27
2019-04-01T06:12:58.344Z,102827.97
2019-04-01T06:15:27.999Z,102828.39
2019-04-01T06:17:57.833Z,102831.02
2019-04-01T06:20:27.323Z,102835.38
2019-04-01T06:22:56.836Z,102831.81
2019-04-01T06:25:27.590Z,102831.37
2019-04-01T06:27:58.324Z,102835.28
2019-04-01T06:30:29.263Z,102836.08
2019-04-01T06:33:00.406Z,102842.70
2019-04-01T06:35:30.023Z,102840.47
2019-04-01T06:37:59.617Z,102834.20
2019-04-01T06:40:30.777Z,102828.42
2019-04-01T06:43:00.420Z,102840.30
2019-04-01T06:45:29.880Z,102835.79
2019-04-01T06:48:00.888Z,102837.95
2019-04-01T06:50:30.386Z,102835.68
2019-04-01T06:53:01.584Z,102831.23
2019-04-01T06:55:32.438Z,102839.08
2019-04-01T06:58:03.689Z,102835.00
2019-04-01T07:00:34.565Z,102838.84
2019-04-01T07:03:06.066Z,102831.20
2019-04-01T07:05:37.365Z,102831.55
2019-04-01T07:08:08.451Z,102834.45
2019-04-01T07:10:40.551Z,102833.07
2019-04-01T07:13:09.982Z,102830.94
2019-04-01T07:15:39.734Z,102829.20
2019-04-01T07:18:09.360Z,102837.11
2019-04-01T07:20:38.784Z,102832.56
2019-04-01T07:23:09.956Z,102835.89
2019-04-01T07:25:39.500Z,102836.58
2019-04-01T07:28:09.702Z,102831.56
2019-04-01T07:30:41.787Z,102837.89
2019-04-01T07:33:10.928Z,102835.98
2019-04-01T07:35:40.344Z,102829.27
2019-04-01T07:38:09.875Z,102826.64
2019-04-01T07:40:39.443Z,102823.02
2019-04-01T07:43:09.131Z,102822.44
2019-04-01T07:45:38.911Z,102816.87
2019-04-01T07:48:12.379Z,102809.70
2019-04-01T07:50:40.568Z,102817.27
2019-04-01T07:53:10.260Z,102819.93
2019-04-01T07:55:39.795Z,102814.14
2019-04-01T07:58:09.208Z,102820.56
2019-04-01T08:00:40.736Z,102808.70
2019-04-01T08:03:11.666Z,102812.84
2019-04-01T08:05:41.194Z,102811.91
2019-04-01T08:08:11.256Z,102810.45
2019-04-01T08:10:40.718Z,102812.48
2019-04-01T08:13:10.143Z,102814.47
2019-04-01T08:15:42.674Z,102813.47
2019-04-01T08:18:13.738Z,102805.34
2019-04-01T08:20:43.309Z,102803.83
2019-04-01T08:23:13.226Z,102810.92
2019-04-01T08:25:47.802Z,102799.53
2019-04-01T08:28:15.956Z,102797.30
2019-04-01T08:30:46.154Z,102804.89
2019-04-01T08:33:15.735Z,102796.44
2019-04-01T08:35:48.077Z,102798.61
2019-04-01T08:38:17.893Z,102792.22
2019-04-01T08:40:50.461Z,102780.80
2019-04-01T08:43:19.983Z,102785.67
2019-04-01T08:45:49.800Z,102784.47
2019-04-01T08:48:19.280Z,102783.81
2019-04-01T08:50:51.664Z,102787.31
2019-04-01T08:53:22.725Z,102781.58
2019-04-01T08:56:12.251Z,102779.94
2019-04-01T08:58:41.832Z,102776.38
2019-04-01T09:01:11.253Z,102776.98
2019-04-01T09:03:40.850Z,102776.86
2019-04-01T09:06:10.561Z,102773.79
2019-04-01T09:08:42.334Z,102776.66
2019-04-01T09:11:13.702Z,102772.70
2019-04-01T09:13:44.993Z,102769.73
2019-04-01T09:16:14.709Z,102769.77
2019-04-01T09:18:46.669Z,102767.19
2019-04-01T09:21:19.547Z,102760.25
2019-04-01T09:23:52.012Z,102763.50
2019-04-01T09:26:20.154Z,102766.78
2019-04-01T09:28:49.600Z,102752.02
2019-04-01T09:31:20.770Z,102756.78
2019-04-01T09:33:50.172Z,102756.59
2019-04-01T09:36:19.877Z,102761.78
2019-04-01T09:38:50.941Z,102758.98
2019-04-01T09:41:20.783Z,102750.56
2019-04-01T09:43:50.559Z,102754.00
2019-04-01T09:46:20.160Z,102748.47
2019-04-01T09:48:50.734Z,102748.00
2019-04-01T09:51:20.544Z,102742.28
2019-04-01T09:53:51.763Z,102738.67
2019-04-01T09:56:21.364Z,102752.81
2019-04-01T09:58:52.101Z,102746.95
2019-04-01T10:01:21.605Z,102737.29
2019-04-01T10:03:51.173Z,102734.36
2019-04-01T10:06:23.736Z,102735.66
2019-04-01T10:08:54.970Z,102731.02
2019-04-01T10:11:25.676Z,102737.52
2019-04-01T10:13:55.358Z,102733.02
2019-04-01T10:16:28.690Z,102730.72
2019-04-01T10:18:58.298Z,102725.53
2019-04-01T10:21:29.602Z,102726.48
2019-04-01T10:24:00.512Z,102729.45
2019-04-01T10:26:29.916Z,102730.50
2019-04-01T10:28:59.726Z,102732.00
2019-04-01T10:31:30.666Z,102719.56
2019-04-01T10:34:00.099Z,102719.34
2019-04-01T10:36:29.732Z,102703.95
2019-04-01T10:39:01.080Z,102702.11
2019-04-01T10:41:31.603Z,102704.48
2019-04-01T10:44:04.744Z,102695.41
2019-04-01T10:46:32.667Z,102713.97
2019-04-01T10:49:03.279Z,102702.84
2019-04-01T10:51:33.052Z,102705.67
2019-04-01T10:54:02.611Z,102688.14
2019-04-01T10:56:35.671Z,102693.72
2019-04-01T10:59:03.510Z,102680.91
2019-04-01T11:01:32.952Z,102673.59
2019-04-01T11:04:02.558Z,102677.33
2019-04-01T11:06:32.200Z,102674.22
2019-04-01T11:09:01.720Z,102675.14
2019-04-01T11:11:31.105Z,102680.84
2019-04-01T11:14:00.532Z,102672.83
2019-04-01T11:16:31.795Z,102673.66
2019-04-01T11:19:01.141Z,102667.12
2019-04-01T11:21:33.780Z,102682.02
2019-04-01T11:24:03.370Z,102674.90
2019-04-01T11:26:36.453Z,102669.02
2019-04-01T11:29:07.717Z,102662.28
2019-04-01T11:31:37.325Z,102659.84
2019-04-01T11:34:08.075Z,102650.78
2019-04-01T11:36:39.292Z,102638.97
2019-04-01T11:39:12.694Z,102642.44
2019-04-01T11:41:43.847Z,102638.00
2019-04-01T11:44:15.086Z,102639.14
2019-04-01T11:46:44.575Z,102640.95
2019-04-01T11:49:14.122Z,102632.83
2019-04-01T11:51:43.987Z,102623.55
2019-04-01T11:54:14.656Z,102614.74
2019-04-01T11:56:44.190Z,102610.80
2019-04-01T11:59:15.431Z,102603.58
2019-04-01T12:01:47.320Z,102598.34
2019-04-01T12:04:18.059Z,102602.78
2019-04-01T12:06:47.920Z,102590.52
2019-04-01T12:09:17.454Z,102590.34
2019-04-01T12:11:49.809Z,102582.95
2019-04-01T12:14:20.739Z,102570.52
2019-04-01T12:16:50.155Z,102579.20
2019-04-01T12:19:19.692Z,102567.20
2019-04-01T12:21:49.571Z,102567.41
2019-04-01T12:24:21.551Z,102556.34
2019-04-01T12:26:52.433Z,102564.28
2019-04-01T12:29:22.202Z,102555.31
2019-04-01T12:31:54.951Z,102543.65
2019-04-01T12:34:26.037Z,102538.83
2019-04-01T12:36:57.333Z,102538.80
2019-04-01T12:39:29.319Z,102541.08
2019-04-01T12:42:00.541Z,102536.67
2019-04-01T12:44:30.235Z,102537.66
2019-04-01T12:47:01.000Z,102523.02
2019-04-01T12:49:30.414Z,102522.16
2019-04-01T12:52:01.877Z,102511.22
2019-04-01T12:54:32.978Z,102505.64
2019-04-01T12:57:05.747Z,102502.69
2019-04-01T12:59:35.379Z,102501.41
2019-04-01T13:02:08.966Z,102492.70
2019-04-01T13:04:41.384Z,102491.08
2019-04-01T13:07:14.581Z,102491.67
2019-04-01T13:09:46.030Z,102473.35
2019-04-01T13:12:17.787Z,102474.36
2019-04-01T13:14:50.365Z,102473.87
2019-04-01T13:17:20.945Z,102473.81
2019-04-01T13:19:50.666Z,102453.70
2019-04-01T13:22:22.184Z,102446.69
2019-04-01T13:24:53.120Z,102444.01
2019-04-01T13:27:22.616Z,102430.02
2019-04-01T13:29:53.659Z,102437.33
2019-04-01T13:32:24.085Z,102427.69
2019-04-01T13:34:55.559Z,102419.53
2019-04-01T13:37:33.898Z,102417.98
2019-04-01T13:40:03.544Z,102413.97
2019-04-01T13:42:33.109Z,102413.13
2019-04-01T13:45:02.860Z,102405.07
2019-04-01T13:47:34.152Z,102392.83
2019-04-01T13:50:04.889Z,102396.70
2019-04-01T13:52:34.607Z,102384.44
2019-04-01T13:55:09.913Z,102379.02
2019-04-01T13:57:39.675Z,102376.52
2019-04-01T14:00:10.092Z,102359.69
2019-04-01T14:02:39.890Z,102371.11
2019-04-01T14:05:09.636Z,102360.70
2019-04-01T14:07:40.247Z,102349.67
2019-04-01T14:10:10.271Z,102330.18
2019-04-01T14:12:41.797Z,102349.50
2019-04-01T14:15:11.736Z,102351.11
2019-04-01T14:17:41.338Z,102339.14
2019-04-01T14:20:11.367Z,102342.72
2019-04-01T14:22:44.334Z,102338.28
2019-04-01T14:25:15.321Z,102328.98
2019-04-01T14:27:44.909Z,102322.56
2019-04-01T14:30:15.668Z,102316.28
2019-04-01T14:32:45.254Z,102334.14
2019-04-01T14:35:14.799Z,102316.83
2019-04-01T14:37:44.795Z,102311.92
2019-04-01T14:40:14.696Z,102303.25
2019-04-01T14:42:46.417Z,102307.61
2019-04-01T14:45:16.371Z,102303.32
2019-04-01T14:47:57.114Z,102305.27
2019-04-01T14:50:17.106Z,102290.33
2019-04-01T14:52:46.856Z,102284.34
2019-04-01T14:55:18.048Z,102275.39
2019-04-01T14:57:47.458Z,102268.12
2019-04-01T15:00:17.420Z,102273.98
2019-04-01T15:02:46.809Z,102272.03
2019-04-01T15:05:17.288Z,102252.38
2019-04-01T15:07:47.137Z,102255.33
2019-04-01T15:10:17.418Z,102262.09
2019-04-01T15:12:46.878Z,102248.69
2019-04-01T15:15:16.829Z,102245.59
2019-04-01T15:17:47.275Z,102235.41
2019-04-01T15:20:17.319Z,102235.52
2019-04-01T15:22:46.879Z,102227.94
2019-04-01T15:25:16.376Z,102219.91
2019-04-01T15:27:48.285Z,102222.41
2019-04-01T15:30:18.424Z,102217.53
2019-04-01T15:32:47.897Z,102223.28
2019-04-01T15:35:17.518Z,102222.20
2019-04-01T15:37:47.102Z,102215.52
2019-04-01T15:40:18.251Z,102212.66
2019-04-01T15:42:50.064Z,102216.47
2019-04-01T15:45:21.497Z,102197.86
2019-04-01T15:47:51.087Z,102196.03
2019-04-01T15:50:28.144Z,102187.45
2019-04-01T15:52:54.254Z,102188.59
2019-04-01T15:55:25.066Z,102183.19
2019-04-01T15:57:54.485Z,102179.75
2019-04-01T16:00:24.654Z,102180.20
2019-04-01T16:02:54.168Z,102182.27
2019-04-01T16:05:23.820Z,102181.77
2019-04-01T16:07:53.437Z,102177.53
2019-04-01T16:10:22.925Z,102169.67
2019-04-01T16:12:53.487Z,102168.47
2019-04-01T16:15:23.164Z,102168.47
2019-04-01T16:17:54.398Z,102150.80
2019-04-01T16:20:23.910Z,102149.64
2019-04-01T16:22:54.676Z,102149.92
2019-04-01T16:25:25.140Z,102137.16
2019-04-01T16:27:54.704Z,102137.39
2019-04-01T16:30:24.316Z,102139.57
2019-04-01T16:32:53.857Z,102138.73
2019-04-01T16:35:24.958Z,102136.30
2019-04-01T16:37:54.570Z,102131.41
2019-04-01T16:40:26.807Z,102128.84
2019-04-01T16:42:56.254Z,102117.39
2019-04-01T16:45:32.523Z,102128.16
2019-04-01T16:48:03.016Z,102120.56
2019-04-01T16:50:32.430Z,102135.52
2019-04-01T16:53:02.112Z,102126.37
2019-04-01T16:55:31.510Z,102129.00
2019-04-01T16:58:01.043Z,102121.70
2019-04-01T17:00:30.458Z,102121.36
2019-04-01T17:03:00.856Z,102123.01
2019-04-01T17:05:33.960Z,102119.88
2019-04-01T17:08:04.001Z,102117.73
2019-04-01T17:10:33.598Z,102120.25
2019-04-01T17:13:04.150Z,102113.77
2019-04-01T17:15:35.212Z,102120.09
2019-04-01T17:18:04.623Z,102115.24
2019-04-01T17:20:34.291Z,102113.38
2019-04-01T17:23:05.344Z,102109.55
2019-04-01T17:25:35.872Z,102107.56
2019-04-01T17:28:06.746Z,102112.09
2019-04-01T17:30:36.335Z,102106.44
2019-04-01T17:33:08.452Z,102109.97
2019-04-01T17:35:38.209Z,102105.74
2019-04-01T17:38:08.138Z,102111.81
2019-04-01T17:40:38.579Z,102104.34
2019-04-01T17:43:09.708Z,102102.92
2019-04-01T17:45:41.074Z,102104.44
2019-04-01T17:48:11.244Z,102103.91
2019-04-01T17:50:40.973Z,102098.95
2019-04-01T17:53:13.542Z,102090.92
2019-04-01T17:55:45.634Z,102090.92
2019-04-01T17:58:18.941Z,102087.87
2019-04-01T18:00:54.624Z,102087.20
2019-04-01T18:03:25.471Z,102094.40
2019-04-01T18:05:56.615Z,102088.11
2019-04-01T18:08:26.144Z,102088.36
2019-04-01T18:10:57.192Z,102089.91
2019-04-01T18:13:29.184Z,102096.05
2019-04-01T18:15:58.742Z,102095.55
2019-04-01T18:18:28.476Z,102095.48
2019-04-01T18:20:59.348Z,102098.95
2019-04-01T18:23:30.041Z,102095.86
2019-04-01T18:25:59.475Z,102100.67
2019-04-01T18:28:31.762Z,102106.88
2019-04-01T18:31:03.982Z,102104.03
2019-04-01T18:33:33.548Z,102097.56
2019-04-01T18:36:03.366Z,102099.57
2019-04-01T18:38:32.873Z,102100.38
2019-04-01T18:41:02.293Z,102100.59
2019-04-01T18:43:32.295Z,102106.22
2019-04-01T18:46:01.779Z,102107.72
2019-04-01T18:48:32.259Z,102107.43
2019-04-01T18:51:04.701Z,102098.63
2019-04-01T18:53:36.359Z,102094.76
2019-04-01T18:56:06.183Z,102098.23
2019-04-01T18:58:36.829Z,102099.25
2019-04-01T19:01:07.964Z,102104.87
2019-04-01T19:03:39.490Z,102098.53
2019-04-01T19:06:12.101Z,102101.33
2019-04-01T19:08:42.923Z,102103.99
2019-04-01T19:11:15.433Z,102099.54
2019-04-01T19:13:45.926Z,102098.20
2019-04-01T19:16:17.325Z,102098.66
2019-04-01T19:18:48.857Z,102097.78
2019-04-01T19:21:19.524Z,102095.18
2019-04-01T19:23:49.153Z,102100.51
2019-04-01T19:26:20.655Z,102096.19
2019-04-01T19:28:53.243Z,102095.44
2019-04-01T19:31:23.768Z,102095.72
2019-04-01T19:33:53.281Z,102104.81
2019-04-01T19:36:22.969Z,102094.47
2019-04-01T19:38:54.351Z,102093.69
2019-04-01T19:41:24.005Z,102095.53
2019-04-01T19:43:53.783Z,102086.27
2019-04-01T19:46:23.261Z,102087.87
2019-04-01T19:48:52.795Z,102086.52
2019-04-01T19:51:23.625Z,102084.09
2019-04-01T19:53:53.574Z,102079.41
2019-04-01T19:56:23.029Z,102077.22
2019-04-01T19:58:55.070Z,102075.58
2019-04-01T20:01:24.935Z,102072.73
2019-04-01T20:03:55.979Z,102071.45
2019-04-01T20:06:28.522Z,102073.69
2019-04-01T20:08:58.069Z,102065.38
2019-04-01T20:11:27.450Z,102076.36
2019-04-01T20:13:57.142Z,102071.58
2019-04-01T20:16:28.170Z,102066.02
2019-04-01T20:19:00.181Z,102066.47
2019-04-01T20:21:30.110Z,102064.51
2019-04-01T20:23:59.624Z,102057.34
2019-04-01T20:26:29.374Z,102058.47
2019-04-01T20:29:01.776Z,102053.53
2019-04-01T20:31:33.182Z,102050.39
2019-04-01T20:34:04.315Z,102050.89
2019-04-01T20:36:35.256Z,102044.53
2019-04-01T20:39:07.219Z,102043.59
2019-04-01T20:41:38.455Z,102041.56
2019-04-01T20:44:09.160Z,102038.64
2019-04-01T20:46:39.261Z,102035.23
2019-04-01T20:49:08.961Z,102030.48
2019-04-01T20:51:38.849Z,102034.27
2019-04-01T20:54:08.476Z,102024.45
2019-04-01T20:56:38.059Z,102024.88
2019-04-01T20:59:07.907Z,102025.02
2019-04-01T21:01:43.236Z,102015.64
2019-04-01T21:04:12.769Z,102013.41
2019-04-01T21:06:42.550Z,102015.24
2019-04-01T21:09:11.974Z,102012.40
2019-04-01T21:11:42.914Z,102007.34
2019-04-01T21:14:12.563Z,101998.05
2019-04-01T21:16:41.967Z,101994.09
2019-04-01T21:19:14.288Z,101985.91
2019-04-01T21:21:44.012Z,101988.75
2019-04-01T21:24:16.735Z,101989.84
2019-04-01T21:26:46.222Z,101984.90
2019-04-01T21:29:16.831Z,101981.42
2019-04-01T21:31:48.522Z,101976.11
2019-04-01T21:34:18.053Z,101978.70
2019-04-01T21:36:49.035Z,101977.64
2019-04-01T21:39:18.564Z,101976.36
2019-04-01T21:41:49.662Z,101970.55
2019-04-01T21:44:19.317Z,101964.78
2019-04-01T21:46:48.825Z,101963.34
2019-04-01T21:49:19.340Z,101956.63
2019-04-01T21:51:49.005Z,101950.41
2019-04-01T21:54:20.355Z,101951.23
2019-04-01T21:56:52.147Z,101948.27
2019-04-01T21:59:25.049Z,101949.96
2019-04-01T22:01:54.448Z,101941.25
2019-04-01T22:04:24.292Z,101939.02
2019-04-01T22:06:55.610Z,101934.16
2019-04-01T22:09:24.984Z,101926.58
2019-04-01T22:11:54.355Z,101931.56
2019-04-01T22:14:27.008Z,101911.97
2019-04-01T22:16:56.377Z,101907.28
2019-04-01T22:19:26.861Z,101911.63
2019-04-01T22:21:56.343Z,101905.07
2019-04-01T22:24:26.846Z,101902.84
2019-04-01T22:26:58.003Z,101894.95
2019-04-01T22:29:27.491Z,101894.45
2019-04-01T22:31:56.856Z,101886.65
2019-04-01T22:34:27.280Z,101890.45
2019-04-01T22:36:58.445Z,101883.98
2019-04-01T22:39:27.809Z,101877.74
2019-04-01T22:41:58.286Z,101873.61
2019-04-01T22:44:28.128Z,101875.16
2019-04-01T22:46:59.304Z,101872.68
2019-04-01T22:49:30.501Z,101868.89
2019-04-01T22:52:00.398Z,101863.95
2019-04-01T22:54:30.229Z,101871.48
2019-04-01T22:57:00.431Z,101863.27
2019-04-01T22:59:29.858Z,101869.75
2019-04-01T23:02:01.205Z,101862.62
2019-04-01T23:04:31.824Z,101856.00
2019-04-01T23:07:01.798Z,101849.98
2019-04-01T23:09:31.162Z,101856.42
2019-04-01T23:12:00.536Z,101853.28
2019-04-01T23:14:31.636Z,101850.03
2019-04-01T23:17:01.015Z,101850.18
2019-04-01T23:19:30.391Z,101853.84
2019-04-01T23:22:00.284Z,101852.73
2019-04-01T23:24:30.044Z,101848.14
2019-04-01T23:26:59.444Z,101840.93
2019-04-01T23:29:30.734Z,101840.93
2019-04-01T23:32:00.099Z,101840.98
2019-04-01T23:34:30.948Z,101835.17
2019-04-01T23:37:03.460Z,101836.44
2019-04-01T23:39:33.288Z,101832.38
2019-04-01T23:42:03.629Z,101828.52
2019-04-01T23:44:34.471Z,101830.84
2019-04-01T23:47:05.051Z,101826.58
2019-04-01T23:49:34.445Z,101821.58
2019-04-01T23:52:05.326Z,101817.39
2019-04-01T23:54:36.131Z,101813.92
2019-04-01T23:57:05.615Z,101811.77
2019-04-01T23:59:35.258Z,101806.97
